sensor_id;sensor_type;location;lat;lon;timestamp;temperature;humidity
16408;DHT22;8313;49.894;8.084;2022-07-09T00:00:06;20.40;81.30
16408;DHT22;8313;49.894;8.084;2022-07-09T00:02:35;20.40;81.40
16408;DHT22;8313;49.894;8.084;2022-07-09T00:05:01;20.40;81.40
16408;DHT22;8313;49.894;8.084;2022-07-09T00:07:26;20.40;81.50
16408;DHT22;8313;49.894;8.084;2022-07-09T00:09:52;20.30;81.30
16408;DHT22;8313;49.894;8.084;2022-07-09T00:12:18;20.30;81.60
16408;DHT22;8313;49.894;8.084;2022-07-09T00:14:44;20.30;81.70
16408;DHT22;8313;49.894;8.084;2022-07-09T00:17:10;20.30;81.70
16408;DHT22;8313;49.894;8.084;2022-07-09T00:19:36;20.30;81.90
16408;DHT22;8313;49.894;8.084;2022-07-09T00:22:02;20.20;81.50
16408;DHT22;8313;49.894;8.084;2022-07-09T00:24:28;20.20;81.70
16408;DHT22;8313;49.894;8.084;2022-07-09T00:26:53;20.20;81.90
16408;DHT22;8313;49.894;8.084;2022-07-09T00:29:19;20.20;82.10
16408;DHT22;8313;49.894;8.084;2022-07-09T00:31:45;20.20;81.90
16408;DHT22;8313;49.894;8.084;2022-07-09T00:34:12;20.10;81.80
16408;DHT22;8313;49.894;8.084;2022-07-09T00:36:38;20.10;81.80
16408;DHT22;8313;49.894;8.084;2022-07-09T00:39:04;20.10;81.80
16408;DHT22;8313;49.894;8.084;2022-07-09T00:41:29;20.10;82.10
16408;DHT22;8313;49.894;8.084;2022-07-09T00:43:55;20.10;81.90
16408;DHT22;8313;49.894;8.084;2022-07-09T00:46:21;20.00;81.70
16408;DHT22;8313;49.894;8.084;2022-07-09T00:48:47;20.00;82.20
16408;DHT22;8313;49.894;8.084;2022-07-09T00:51:14;20.00;83.30
16408;DHT22;8313;49.894;8.084;2022-07-09T00:53:42;19.90;82.40
16408;DHT22;8313;49.894;8.084;2022-07-09T00:56:08;19.90;82.40
16408;DHT22;8313;49.894;8.084;2022-07-09T00:58:35;19.90;82.30
16408;DHT22;8313;49.894;8.084;2022-07-09T01:01:01;19.90;82.50
16408;DHT22;8313;49.894;8.084;2022-07-09T01:03:27;19.90;82.40
16408;DHT22;8313;49.894;8.084;2022-07-09T01:05:53;19.80;82.80
16408;DHT22;8313;49.894;8.084;2022-07-09T01:08:18;19.80;82.50
16408;DHT22;8313;49.894;8.084;2022-07-09T01:10:45;19.80;82.60
16408;DHT22;8313;49.894;8.084;2022-07-09T01:13:11;19.80;82.80
16408;DHT22;8313;49.894;8.084;2022-07-09T01:15:37;19.80;82.80
16408;DHT22;8313;49.894;8.084;2022-07-09T01:18:03;19.70;82.60
16408;DHT22;8313;49.894;8.084;2022-07-09T01:20:29;19.70;82.60
16408;DHT22;8313;49.894;8.084;2022-07-09T01:22:55;19.70;82.70
16408;DHT22;8313;49.894;8.084;2022-07-09T01:25:31;19.70;83.40
16408;DHT22;8313;49.894;8.084;2022-07-09T01:27:59;19.70;82.90
16408;DHT22;8313;49.894;8.084;2022-07-09T01:30:26;19.60;82.60
16408;DHT22;8313;49.894;8.084;2022-07-09T01:32:53;19.60;82.80
16408;DHT22;8313;49.894;8.084;2022-07-09T01:35:20;19.60;82.80
16408;DHT22;8313;49.894;8.084;2022-07-09T01:37:45;19.60;82.80
16408;DHT22;8313;49.894;8.084;2022-07-09T01:40:11;19.60;82.80
16408;DHT22;8313;49.894;8.084;2022-07-09T01:42:37;19.50;82.90
16408;DHT22;8313;49.894;8.084;2022-07-09T01:45:03;19.50;83.70
16408;DHT22;8313;49.894;8.084;2022-07-09T01:47:29;19.40;83.30
16408;DHT22;8313;49.894;8.084;2022-07-09T01:49:55;19.30;83.80
16408;DHT22;8313;49.894;8.084;2022-07-09T01:52:21;19.30;83.50
16408;DHT22;8313;49.894;8.084;2022-07-09T01:54:46;19.30;83.80
16408;DHT22;8313;49.894;8.084;2022-07-09T01:57:12;19.30;83.80
16408;DHT22;8313;49.894;8.084;2022-07-09T01:59:38;19.30;83.80
16408;DHT22;8313;49.894;8.084;2022-07-09T02:02:04;19.30;84.80
16408;DHT22;8313;49.894;8.084;2022-07-09T02:04:31;19.20;84.20
16408;DHT22;8313;49.894;8.084;2022-07-09T02:06:56;19.20;84.80
16408;DHT22;8313;49.894;8.084;2022-07-09T02:09:22;19.00;86.10
16408;DHT22;8313;49.894;8.084;2022-07-09T02:11:48;18.90;86.50
16408;DHT22;8313;49.894;8.084;2022-07-09T02:14:15;18.90;86.80
16408;DHT22;8313;49.894;8.084;2022-07-09T02:16:41;18.70;87.70
16408;DHT22;8313;49.894;8.084;2022-07-09T02:19:06;18.70;88.30
16408;DHT22;8313;49.894;8.084;2022-07-09T02:21:33;18.60;88.80
16408;DHT22;8313;49.894;8.084;2022-07-09T02:23:59;18.50;89.30
16408;DHT22;8313;49.894;8.084;2022-07-09T02:26:28;18.50;89.80
16408;DHT22;8313;49.894;8.084;2022-07-09T02:28:55;18.50;90.10
16408;DHT22;8313;49.894;8.084;2022-07-09T02:31:21;18.50;90.10
16408;DHT22;8313;49.894;8.084;2022-07-09T02:33:47;18.40;90.30
16408;DHT22;8313;49.894;8.084;2022-07-09T02:36:13;18.40;90.40
16408;DHT22;8313;49.894;8.084;2022-07-09T02:38:38;18.40;90.50
16408;DHT22;8313;49.894;8.084;2022-07-09T02:41:05;18.30;90.50
16408;DHT22;8313;49.894;8.084;2022-07-09T02:43:31;18.30;90.70
16408;DHT22;8313;49.894;8.084;2022-07-09T02:45:57;18.30;90.90
16408;DHT22;8313;49.894;8.084;2022-07-09T02:48:23;18.20;90.60
16408;DHT22;8313;49.894;8.084;2022-07-09T02:50:52;18.30;90.30
16408;DHT22;8313;49.894;8.084;2022-07-09T02:53:18;18.30;90.40
16408;DHT22;8313;49.894;8.084;2022-07-09T02:55:44;18.30;90.30
16408;DHT22;8313;49.894;8.084;2022-07-09T02:58:10;18.30;90.40
16408;DHT22;8313;49.894;8.084;2022-07-09T03:00:37;18.30;90.40
16408;DHT22;8313;49.894;8.084;2022-07-09T03:03:06;18.30;90.10
16408;DHT22;8313;49.894;8.084;2022-07-09T03:05:31;18.40;90.20
16408;DHT22;8313;49.894;8.084;2022-07-09T03:07:57;18.40;90.10
16408;DHT22;8313;49.894;8.084;2022-07-09T03:10:23;18.40;90.20
16408;DHT22;8313;49.894;8.084;2022-07-09T03:12:49;18.40;90.00
16408;DHT22;8313;49.894;8.084;2022-07-09T03:15:15;18.30;90.20
16408;DHT22;8313;49.894;8.084;2022-07-09T03:17:46;18.30;90.30
16408;DHT22;8313;49.894;8.084;2022-07-09T03:20:13;18.20;90.30
16408;DHT22;8313;49.894;8.084;2022-07-09T03:22:39;18.20;90.40
16408;DHT22;8313;49.894;8.084;2022-07-09T03:25:05;18.20;90.30
16408;DHT22;8313;49.894;8.084;2022-07-09T03:27:32;18.20;90.40
16408;DHT22;8313;49.894;8.084;2022-07-09T03:29:58;18.20;90.80
16408;DHT22;8313;49.894;8.084;2022-07-09T03:32:23;18.20;90.50
16408;DHT22;8313;49.894;8.084;2022-07-09T03:34:49;18.10;90.90
16408;DHT22;8313;49.894;8.084;2022-07-09T03:37:18;18.00;91.10
16408;DHT22;8313;49.894;8.084;2022-07-09T03:39:43;18.00;91.40
16408;DHT22;8313;49.894;8.084;2022-07-09T03:42:10;17.90;91.60
16408;DHT22;8313;49.894;8.084;2022-07-09T03:44:37;17.80;91.70
16408;DHT22;8313;49.894;8.084;2022-07-09T03:47:03;17.70;92.00
16408;DHT22;8313;49.894;8.084;2022-07-09T03:49:29;17.70;92.20
16408;DHT22;8313;49.894;8.084;2022-07-09T03:51:55;17.60;92.50
16408;DHT22;8313;49.894;8.084;2022-07-09T03:54:20;17.60;92.70
16408;DHT22;8313;49.894;8.084;2022-07-09T03:56:46;17.60;92.80
16408;DHT22;8313;49.894;8.084;2022-07-09T03:59:12;17.70;92.60
16408;DHT22;8313;49.894;8.084;2022-07-09T04:01:37;17.70;92.80
16408;DHT22;8313;49.894;8.084;2022-07-09T04:04:04;17.70;93.00
16408;DHT22;8313;49.894;8.084;2022-07-09T04:06:29;17.60;93.10
16408;DHT22;8313;49.894;8.084;2022-07-09T04:08:55;17.70;92.80
16408;DHT22;8313;49.894;8.084;2022-07-09T04:11:21;17.70;92.40
16408;DHT22;8313;49.894;8.084;2022-07-09T04:13:47;17.70;92.80
16408;DHT22;8313;49.894;8.084;2022-07-09T04:16:13;17.70;93.10
16408;DHT22;8313;49.894;8.084;2022-07-09T04:18:39;17.60;93.20
16408;DHT22;8313;49.894;8.084;2022-07-09T04:21:09;17.60;93.60
16408;DHT22;8313;49.894;8.084;2022-07-09T04:23:35;17.60;93.70
16408;DHT22;8313;49.894;8.084;2022-07-09T04:26:01;17.60;93.60
16408;DHT22;8313;49.894;8.084;2022-07-09T04:28:27;17.60;93.10
16408;DHT22;8313;49.894;8.084;2022-07-09T04:30:52;17.60;93.40
16408;DHT22;8313;49.894;8.084;2022-07-09T04:33:18;17.60;93.70
16408;DHT22;8313;49.894;8.084;2022-07-09T04:35:44;17.60;94.00
16408;DHT22;8313;49.894;8.084;2022-07-09T04:38:13;17.60;94.20
16408;DHT22;8313;49.894;8.084;2022-07-09T04:40:39;17.70;93.10
16408;DHT22;8313;49.894;8.084;2022-07-09T04:43:06;17.70;93.70
16408;DHT22;8313;49.894;8.084;2022-07-09T04:45:32;17.70;93.50
16408;DHT22;8313;49.894;8.084;2022-07-09T04:47:58;17.70;93.90
16408;DHT22;8313;49.894;8.084;2022-07-09T04:50:24;17.70;94.20
16408;DHT22;8313;49.894;8.084;2022-07-09T04:52:50;17.70;94.50
16408;DHT22;8313;49.894;8.084;2022-07-09T04:55:16;17.70;94.50
16408;DHT22;8313;49.894;8.084;2022-07-09T04:57:43;17.70;94.30
16408;DHT22;8313;49.894;8.084;2022-07-09T05:00:09;17.70;94.00
16408;DHT22;8313;49.894;8.084;2022-07-09T05:02:36;17.80;93.50
16408;DHT22;8313;49.894;8.084;2022-07-09T05:05:02;17.80;93.80
16408;DHT22;8313;49.894;8.084;2022-07-09T05:07:30;17.80;93.90
16408;DHT22;8313;49.894;8.084;2022-07-09T05:09:56;17.80;94.00
16408;DHT22;8313;49.894;8.084;2022-07-09T05:12:22;17.80;94.20
16408;DHT22;8313;49.894;8.084;2022-07-09T05:14:48;17.80;94.20
16408;DHT22;8313;49.894;8.084;2022-07-09T05:17:13;17.80;94.50
16408;DHT22;8313;49.894;8.084;2022-07-09T05:19:39;17.80;95.10
16408;DHT22;8313;49.894;8.084;2022-07-09T05:22:05;17.80;95.50
16408;DHT22;8313;49.894;8.084;2022-07-09T05:24:31;17.70;96.00
16408;DHT22;8313;49.894;8.084;2022-07-09T05:26:56;17.80;95.80
16408;DHT22;8313;49.894;8.084;2022-07-09T05:29:22;17.80;95.80
16408;DHT22;8313;49.894;8.084;2022-07-09T05:31:49;17.80;95.50
16408;DHT22;8313;49.894;8.084;2022-07-09T05:34:15;17.80;95.20
16408;DHT22;8313;49.894;8.084;2022-07-09T05:36:41;17.90;94.80
16408;DHT22;8313;49.894;8.084;2022-07-09T05:39:08;17.90;94.80
16408;DHT22;8313;49.894;8.084;2022-07-09T05:41:33;18.00;95.10
16408;DHT22;8313;49.894;8.084;2022-07-09T05:43:59;18.00;95.70
16408;DHT22;8313;49.894;8.084;2022-07-09T05:46:25;18.00;96.70
16408;DHT22;8313;49.894;8.084;2022-07-09T05:48:51;18.00;96.50
16408;DHT22;8313;49.894;8.084;2022-07-09T05:51:17;18.00;97.00
16408;DHT22;8313;49.894;8.084;2022-07-09T05:53:42;18.00;97.30
16408;DHT22;8313;49.894;8.084;2022-07-09T05:56:08;18.10;97.20
16408;DHT22;8313;49.894;8.084;2022-07-09T05:58:34;18.10;97.50
16408;DHT22;8313;49.894;8.084;2022-07-09T06:01:00;18.20;97.30
16408;DHT22;8313;49.894;8.084;2022-07-09T06:03:26;18.20;97.20
16408;DHT22;8313;49.894;8.084;2022-07-09T06:05:52;18.20;97.50
16408;DHT22;8313;49.894;8.084;2022-07-09T06:08:17;18.30;97.30
16408;DHT22;8313;49.894;8.084;2022-07-09T06:10:43;18.30;97.10
16408;DHT22;8313;49.894;8.084;2022-07-09T06:13:09;18.40;97.30
16408;DHT22;8313;49.894;8.084;2022-07-09T06:15:35;18.40;97.00
16408;DHT22;8313;49.894;8.084;2022-07-09T06:18:00;18.50;97.40
16408;DHT22;8313;49.894;8.084;2022-07-09T06:20:27;18.50;97.50
16408;DHT22;8313;49.894;8.084;2022-07-09T06:22:52;18.60;97.90
16408;DHT22;8313;49.894;8.084;2022-07-09T06:25:18;18.60;98.30
16408;DHT22;8313;49.894;8.084;2022-07-09T06:27:44;18.70;98.50
16408;DHT22;8313;49.894;8.084;2022-07-09T06:30:10;18.70;98.10
16408;DHT22;8313;49.894;8.084;2022-07-09T06:32:35;18.70;98.30
16408;DHT22;8313;49.894;8.084;2022-07-09T06:35:01;18.80;98.40
16408;DHT22;8313;49.894;8.084;2022-07-09T06:37:28;18.90;98.00
16408;DHT22;8313;49.894;8.084;2022-07-09T06:39:54;19.10;97.90
16408;DHT22;8313;49.894;8.084;2022-07-09T06:42:22;19.20;97.80
16408;DHT22;8313;49.894;8.084;2022-07-09T06:44:57;19.30;97.50
16408;DHT22;8313;49.894;8.084;2022-07-09T06:47:22;19.30;97.30
16408;DHT22;8313;49.894;8.084;2022-07-09T06:49:48;19.30;97.40
16408;DHT22;8313;49.894;8.084;2022-07-09T06:52:14;19.40;97.40
16408;DHT22;8313;49.894;8.084;2022-07-09T06:54:39;19.40;97.50
16408;DHT22;8313;49.894;8.084;2022-07-09T06:57:05;19.50;97.40
16408;DHT22;8313;49.894;8.084;2022-07-09T06:59:32;19.60;97.20
16408;DHT22;8313;49.894;8.084;2022-07-09T07:01:58;19.60;97.30
16408;DHT22;8313;49.894;8.084;2022-07-09T07:04:23;19.70;97.20
16408;DHT22;8313;49.894;8.084;2022-07-09T07:06:51;19.80;97.30
16408;DHT22;8313;49.894;8.084;2022-07-09T07:09:16;20.00;97.10
16408;DHT22;8313;49.894;8.084;2022-07-09T07:11:44;20.00;97.00
16408;DHT22;8313;49.894;8.084;2022-07-09T07:14:11;20.10;97.00
16408;DHT22;8313;49.894;8.084;2022-07-09T07:16:37;20.30;97.20
16408;DHT22;8313;49.894;8.084;2022-07-09T07:19:02;20.40;97.00
16408;DHT22;8313;49.894;8.084;2022-07-09T07:21:28;20.50;96.70
16408;DHT22;8313;49.894;8.084;2022-07-09T07:23:54;20.60;96.50
16408;DHT22;8313;49.894;8.084;2022-07-09T07:26:20;20.60;96.50
16408;DHT22;8313;49.894;8.084;2022-07-09T07:28:45;20.70;96.40
16408;DHT22;8313;49.894;8.084;2022-07-09T07:31:11;20.80;96.50
16408;DHT22;8313;49.894;8.084;2022-07-09T07:33:37;20.80;96.00
16408;DHT22;8313;49.894;8.084;2022-07-09T07:36:04;20.90;96.10
16408;DHT22;8313;49.894;8.084;2022-07-09T07:38:30;21.00;96.00
16408;DHT22;8313;49.894;8.084;2022-07-09T07:40:56;21.00;96.10
16408;DHT22;8313;49.894;8.084;2022-07-09T07:43:21;21.00;96.10
16408;DHT22;8313;49.894;8.084;2022-07-09T07:45:47;21.10;96.20
16408;DHT22;8313;49.894;8.084;2022-07-09T07:48:13;21.20;96.10
16408;DHT22;8313;49.894;8.084;2022-07-09T07:50:38;21.20;95.50
16408;DHT22;8313;49.894;8.084;2022-07-09T07:53:07;21.20;95.90
16408;DHT22;8313;49.894;8.084;2022-07-09T07:55:33;21.40;95.40
16408;DHT22;8313;49.894;8.084;2022-07-09T07:57:59;21.40;95.20
16408;DHT22;8313;49.894;8.084;2022-07-09T08:00:25;21.50;95.20
16408;DHT22;8313;49.894;8.084;2022-07-09T08:02:51;21.50;94.80
16408;DHT22;8313;49.894;8.084;2022-07-09T08:05:16;21.70;95.20
16408;DHT22;8313;49.894;8.084;2022-07-09T08:07:42;21.80;95.00
16408;DHT22;8313;49.894;8.084;2022-07-09T08:10:09;21.80;95.00
16408;DHT22;8313;49.894;8.084;2022-07-09T08:12:34;22.00;95.10
16408;DHT22;8313;49.894;8.084;2022-07-09T08:15:00;22.10;94.80
16408;DHT22;8313;49.894;8.084;2022-07-09T08:17:26;22.20;94.70
16408;DHT22;8313;49.894;8.084;2022-07-09T08:19:52;22.20;94.40
16408;DHT22;8313;49.894;8.084;2022-07-09T08:22:18;22.20;94.30
16408;DHT22;8313;49.894;8.084;2022-07-09T08:24:43;22.20;93.80
16408;DHT22;8313;49.894;8.084;2022-07-09T08:27:09;22.40;94.10
16408;DHT22;8313;49.894;8.084;2022-07-09T08:29:35;22.50;94.10
16408;DHT22;8313;49.894;8.084;2022-07-09T08:32:01;22.50;93.40
16408;DHT22;8313;49.894;8.084;2022-07-09T08:34:28;22.60;93.50
16408;DHT22;8313;49.894;8.084;2022-07-09T08:36:53;22.60;93.30
16408;DHT22;8313;49.894;8.084;2022-07-09T08:39:19;22.70;93.40
16408;DHT22;8313;49.894;8.084;2022-07-09T08:41:45;22.70;93.10
16408;DHT22;8313;49.894;8.084;2022-07-09T08:44:11;22.80;93.30
16408;DHT22;8313;49.894;8.084;2022-07-09T08:46:38;22.80;92.70
16408;DHT22;8313;49.894;8.084;2022-07-09T08:49:05;22.80;92.40
16408;DHT22;8313;49.894;8.084;2022-07-09T08:51:32;22.80;92.10
16408;DHT22;8313;49.894;8.084;2022-07-09T08:53:59;22.80;92.30
16408;DHT22;8313;49.894;8.084;2022-07-09T08:56:25;22.90;92.10
16408;DHT22;8313;49.894;8.084;2022-07-09T08:58:51;22.90;91.90
16408;DHT22;8313;49.894;8.084;2022-07-09T09:01:17;22.90;91.90
16408;DHT22;8313;49.894;8.084;2022-07-09T09:03:43;22.90;91.50
16408;DHT22;8313;49.894;8.084;2022-07-09T09:06:10;22.90;91.70
16408;DHT22;8313;49.894;8.084;2022-07-09T09:08:40;22.90;91.50
16408;DHT22;8313;49.894;8.084;2022-07-09T09:11:08;23.00;91.70
16408;DHT22;8313;49.894;8.084;2022-07-09T09:13:40;23.10;91.50
16408;DHT22;8313;49.894;8.084;2022-07-09T09:16:07;23.10;91.50
16408;DHT22;8313;49.894;8.084;2022-07-09T09:18:40;23.20;91.40
16408;DHT22;8313;49.894;8.084;2022-07-09T09:21:07;23.20;90.90
16408;DHT22;8313;49.894;8.084;2022-07-09T09:26:30;23.30;90.90
16408;DHT22;8313;49.894;8.084;2022-07-09T09:28:59;23.20;90.30
16408;DHT22;8313;49.894;8.084;2022-07-09T09:31:36;23.20;90.50
16408;DHT22;8313;49.894;8.084;2022-07-09T09:34:12;23.20;90.30
16408;DHT22;8313;49.894;8.084;2022-07-09T09:39:25;23.30;90.20
16408;DHT22;8313;49.894;8.084;2022-07-09T09:41:52;23.40;90.30
16408;DHT22;8313;49.894;8.084;2022-07-09T09:44:33;23.40;90.10
16408;DHT22;8313;49.894;8.084;2022-07-09T09:47:04;23.40;90.00
16408;DHT22;8313;49.894;8.084;2022-07-09T09:49:30;23.50;90.20
16408;DHT22;8313;49.894;8.084;2022-07-09T09:52:03;23.60;90.00
16408;DHT22;8313;49.894;8.084;2022-07-09T09:54:32;23.50;90.00
16408;DHT22;8313;49.894;8.084;2022-07-09T09:56:59;23.60;90.10
16408;DHT22;8313;49.894;8.084;2022-07-09T09:59:25;23.70;89.30
16408;DHT22;8313;49.894;8.084;2022-07-09T10:01:51;23.70;88.10
16408;DHT22;8313;49.894;8.084;2022-07-09T10:04:17;23.80;88.90
16408;DHT22;8313;49.894;8.084;2022-07-09T10:06:44;24.00;89.40
16408;DHT22;8313;49.894;8.084;2022-07-09T10:09:14;24.00;88.80
16408;DHT22;8313;49.894;8.084;2022-07-09T10:11:41;24.10;89.00
16408;DHT22;8313;49.894;8.084;2022-07-09T10:14:06;24.00;88.30
16408;DHT22;8313;49.894;8.084;2022-07-09T10:16:40;24.00;88.50
16408;DHT22;8313;49.894;8.084;2022-07-09T10:19:06;24.00;88.70
16408;DHT22;8313;49.894;8.084;2022-07-09T10:21:33;24.00;88.00
16408;DHT22;8313;49.894;8.084;2022-07-09T10:23:59;24.10;87.60
16408;DHT22;8313;49.894;8.084;2022-07-09T10:26:44;24.20;87.00
16408;DHT22;8313;49.894;8.084;2022-07-09T10:32:30;24.10;86.10
16408;DHT22;8313;49.894;8.084;2022-07-09T10:35:01;24.30;86.10
16408;DHT22;8313;49.894;8.084;2022-07-09T10:37:42;24.50;86.70
16408;DHT22;8313;49.894;8.084;2022-07-09T10:40:15;24.60;87.00
16408;DHT22;8313;49.894;8.084;2022-07-09T10:42:43;24.70;84.70
16408;DHT22;8313;49.894;8.084;2022-07-09T10:45:22;24.70;85.30
16408;DHT22;8313;49.894;8.084;2022-07-09T10:47:57;24.70;84.10
16408;DHT22;8313;49.894;8.084;2022-07-09T10:50:24;24.80;84.30
16408;DHT22;8313;49.894;8.084;2022-07-09T10:52:51;24.90;83.30
16408;DHT22;8313;49.894;8.084;2022-07-09T10:55:22;25.10;84.40
16408;DHT22;8313;49.894;8.084;2022-07-09T10:57:48;25.20;84.30
16408;DHT22;8313;49.894;8.084;2022-07-09T11:00:15;25.40;83.40
16408;DHT22;8313;49.894;8.084;2022-07-09T11:03:11;25.50;84.10
16408;DHT22;8313;49.894;8.084;2022-07-09T11:05:44;25.60;83.50
16408;DHT22;8313;49.894;8.084;2022-07-09T11:08:10;25.80;83.60
16408;DHT22;8313;49.894;8.084;2022-07-09T11:10:39;25.80;82.20
16408;DHT22;8313;49.894;8.084;2022-07-09T11:13:07;26.00;82.80
16408;DHT22;8313;49.894;8.084;2022-07-09T11:15:35;26.10;82.40
16408;DHT22;8313;49.894;8.084;2022-07-09T11:20:29;26.20;80.00
16408;DHT22;8313;49.894;8.084;2022-07-09T11:22:56;26.00;79.40
16408;DHT22;8313;49.894;8.084;2022-07-09T11:25:23;26.00;79.90
16408;DHT22;8313;49.894;8.084;2022-07-09T11:27:51;25.90;78.80
16408;DHT22;8313;49.894;8.084;2022-07-09T11:30:17;25.90;79.50
16408;DHT22;8313;49.894;8.084;2022-07-09T11:32:43;26.10;80.10
16408;DHT22;8313;49.894;8.084;2022-07-09T11:35:10;26.20;79.30
16408;DHT22;8313;49.894;8.084;2022-07-09T11:37:36;26.20;79.90
16408;DHT22;8313;49.894;8.084;2022-07-09T11:40:03;26.50;79.50
16408;DHT22;8313;49.894;8.084;2022-07-09T11:42:29;26.40;77.70
16408;DHT22;8313;49.894;8.084;2022-07-09T11:44:55;26.40;78.90
16408;DHT22;8313;49.894;8.084;2022-07-09T11:47:33;26.60;79.50
16408;DHT22;8313;49.894;8.084;2022-07-09T11:50:09;26.50;77.70
16408;DHT22;8313;49.894;8.084;2022-07-09T11:52:43;26.60;76.80
16408;DHT22;8313;49.894;8.084;2022-07-09T11:55:10;26.60;76.30
16408;DHT22;8313;49.894;8.084;2022-07-09T11:57:37;26.60;76.10
16408;DHT22;8313;49.894;8.084;2022-07-09T12:00:08;26.70;76.30
16408;DHT22;8313;49.894;8.084;2022-07-09T12:02:46;26.70;77.40
16408;DHT22;8313;49.894;8.084;2022-07-09T12:05:11;26.90;76.40
16408;DHT22;8313;49.894;8.084;2022-07-09T12:07:37;27.00;76.90
16408;DHT22;8313;49.894;8.084;2022-07-09T12:10:09;26.80;74.60
16408;DHT22;8313;49.894;8.084;2022-07-09T12:12:36;26.80;75.00
16408;DHT22;8313;49.894;8.084;2022-07-09T12:15:04;26.70;74.50
16408;DHT22;8313;49.894;8.084;2022-07-09T12:17:31;26.70;74.50
16408;DHT22;8313;49.894;8.084;2022-07-09T12:19:58;26.60;74.90
16408;DHT22;8313;49.894;8.084;2022-07-09T12:22:24;26.50;75.30
16408;DHT22;8313;49.894;8.084;2022-07-09T12:24:51;26.70;75.50
16408;DHT22;8313;49.894;8.084;2022-07-09T12:27:17;26.90;75.90
16408;DHT22;8313;49.894;8.084;2022-07-09T12:29:43;26.90;73.70
16408;DHT22;8313;49.894;8.084;2022-07-09T12:32:09;26.90;73.00
16408;DHT22;8313;49.894;8.084;2022-07-09T12:34:35;27.00;74.30
16408;DHT22;8313;49.894;8.084;2022-07-09T12:37:01;27.20;73.90
16408;DHT22;8313;49.894;8.084;2022-07-09T12:39:27;27.20;73.00
16408;DHT22;8313;49.894;8.084;2022-07-09T12:41:53;27.20;73.10
16408;DHT22;8313;49.894;8.084;2022-07-09T12:44:18;27.30;73.10
16408;DHT22;8313;49.894;8.084;2022-07-09T12:46:44;27.40;72.90
16408;DHT22;8313;49.894;8.084;2022-07-09T12:49:10;27.50;72.50
16408;DHT22;8313;49.894;8.084;2022-07-09T12:51:35;27.50;71.50
16408;DHT22;8313;49.894;8.084;2022-07-09T12:54:01;27.40;72.00
16408;DHT22;8313;49.894;8.084;2022-07-09T12:56:27;27.40;71.70
16408;DHT22;8313;49.894;8.084;2022-07-09T12:58:53;27.60;71.60
16408;DHT22;8313;49.894;8.084;2022-07-09T13:01:19;27.70;71.60
16408;DHT22;8313;49.894;8.084;2022-07-09T13:03:44;27.50;69.60
16408;DHT22;8313;49.894;8.084;2022-07-09T13:06:10;27.30;69.40
16408;DHT22;8313;49.894;8.084;2022-07-09T13:08:54;27.30;69.70
16408;DHT22;8313;49.894;8.084;2022-07-09T13:11:20;27.20;70.30
16408;DHT22;8313;49.894;8.084;2022-07-09T13:13:46;27.40;69.30
16408;DHT22;8313;49.894;8.084;2022-07-09T13:16:12;27.50;70.30
16408;DHT22;8313;49.894;8.084;2022-07-09T13:18:38;27.40;69.60
16408;DHT22;8313;49.894;8.084;2022-07-09T13:21:04;27.40;67.80
16408;DHT22;8313;49.894;8.084;2022-07-09T13:23:31;27.50;68.00
16408;DHT22;8313;49.894;8.084;2022-07-09T13:25:57;27.60;68.40
16408;DHT22;8313;49.894;8.084;2022-07-09T13:28:23;27.70;68.30
16408;DHT22;8313;49.894;8.084;2022-07-09T13:30:49;27.70;67.60
16408;DHT22;8313;49.894;8.084;2022-07-09T13:33:15;27.50;67.30
16408;DHT22;8313;49.894;8.084;2022-07-09T13:35:40;27.40;67.70
16408;DHT22;8313;49.894;8.084;2022-07-09T13:38:07;27.50;66.80
16408;DHT22;8313;49.894;8.084;2022-07-09T13:40:32;27.60;68.00
16408;DHT22;8313;49.894;8.084;2022-07-09T13:42:58;27.60;67.20
16408;DHT22;8313;49.894;8.084;2022-07-09T13:45:24;27.60;66.70
16408;DHT22;8313;49.894;8.084;2022-07-09T13:47:50;27.70;66.70
16408;DHT22;8313;49.894;8.084;2022-07-09T13:50:15;27.70;65.50
16408;DHT22;8313;49.894;8.084;2022-07-09T13:52:41;27.70;66.70
16408;DHT22;8313;49.894;8.084;2022-07-09T13:55:07;27.80;66.10
16408;DHT22;8313;49.894;8.084;2022-07-09T13:57:33;27.70;65.60
16408;DHT22;8313;49.894;8.084;2022-07-09T13:59:59;27.50;65.70
16408;DHT22;8313;49.894;8.084;2022-07-09T14:02:25;27.50;65.70
16408;DHT22;8313;49.894;8.084;2022-07-09T14:04:50;27.50;65.90
16408;DHT22;8313;49.894;8.084;2022-07-09T14:07:17;27.60;65.60
16408;DHT22;8313;49.894;8.084;2022-07-09T14:09:43;27.50;66.00
16408;DHT22;8313;49.894;8.084;2022-07-09T14:12:08;27.60;65.10
16408;DHT22;8313;49.894;8.084;2022-07-09T14:14:34;27.60;65.60
16408;DHT22;8313;49.894;8.084;2022-07-09T14:17:01;27.60;65.80
16408;DHT22;8313;49.894;8.084;2022-07-09T14:19:27;27.60;64.90
16408;DHT22;8313;49.894;8.084;2022-07-09T14:21:53;27.70;65.50
16408;DHT22;8313;49.894;8.084;2022-07-09T14:24:18;27.70;64.80
16408;DHT22;8313;49.894;8.084;2022-07-09T14:26:44;27.70;65.20
16408;DHT22;8313;49.894;8.084;2022-07-09T14:29:11;27.70;66.10
16408;DHT22;8313;49.894;8.084;2022-07-09T14:31:37;27.60;65.30
16408;DHT22;8313;49.894;8.084;2022-07-09T14:34:03;27.60;65.50
16408;DHT22;8313;49.894;8.084;2022-07-09T14:36:29;27.60;65.50
16408;DHT22;8313;49.894;8.084;2022-07-09T14:38:54;27.50;65.90
16408;DHT22;8313;49.894;8.084;2022-07-09T14:41:20;27.50;65.50
16408;DHT22;8313;49.894;8.084;2022-07-09T14:43:46;27.40;65.70
16408;DHT22;8313;49.894;8.084;2022-07-09T14:46:12;27.30;65.50
16408;DHT22;8313;49.894;8.084;2022-07-09T14:48:37;27.30;66.00
16408;DHT22;8313;49.894;8.084;2022-07-09T14:51:06;27.40;66.20
16408;DHT22;8313;49.894;8.084;2022-07-09T14:53:32;27.50;66.00
16408;DHT22;8313;49.894;8.084;2022-07-09T14:55:58;27.50;65.10
16408;DHT22;8313;49.894;8.084;2022-07-09T14:58:25;27.50;66.00
16408;DHT22;8313;49.894;8.084;2022-07-09T15:00:51;27.50;65.50
16408;DHT22;8313;49.894;8.084;2022-07-09T15:03:16;27.50;65.10
16408;DHT22;8313;49.894;8.084;2022-07-09T15:05:42;27.50;65.60
16408;DHT22;8313;49.894;8.084;2022-07-09T15:08:09;27.50;65.80
16408;DHT22;8313;49.894;8.084;2022-07-09T15:10:35;27.40;65.70
16408;DHT22;8313;49.894;8.084;2022-07-09T15:13:02;27.30;65.60
16408;DHT22;8313;49.894;8.084;2022-07-09T15:15:28;27.40;65.30
16408;DHT22;8313;49.894;8.084;2022-07-09T15:17:54;27.40;65.60
16408;DHT22;8313;49.894;8.084;2022-07-09T15:20:20;27.50;65.30
16408;DHT22;8313;49.894;8.084;2022-07-09T15:22:45;27.60;65.80
16408;DHT22;8313;49.894;8.084;2022-07-09T15:25:11;27.70;65.60
16408;DHT22;8313;49.894;8.084;2022-07-09T15:27:37;27.70;65.50
16408;DHT22;8313;49.894;8.084;2022-07-09T15:30:04;27.70;65.40
16408;DHT22;8313;49.894;8.084;2022-07-09T15:32:29;27.80;65.60
16408;DHT22;8313;49.894;8.084;2022-07-09T15:34:55;27.80;65.70
16408;DHT22;8313;49.894;8.084;2022-07-09T15:37:21;27.80;65.10
16408;DHT22;8313;49.894;8.084;2022-07-09T15:39:47;27.80;65.30
16408;DHT22;8313;49.894;8.084;2022-07-09T15:42:12;27.80;65.70
16408;DHT22;8313;49.894;8.084;2022-07-09T15:44:38;27.80;65.60
16408;DHT22;8313;49.894;8.084;2022-07-09T15:47:04;27.80;65.20
16408;DHT22;8313;49.894;8.084;2022-07-09T15:49:30;27.90;65.70
16408;DHT22;8313;49.894;8.084;2022-07-09T15:51:57;27.90;65.60